Time;durP1;ratioP1;P1;durP2;ratioP2;P2;SDS_P1;SDS_P2;PMS_P1;PMS_P2;Temp;Humidity;BMP_temperature;BMP_pressure;BME280_temperature;BME280_humidity;BME280_pressure;Samples;Min_cycle;Max_cycle;Signal;HPM_P1;HPM_P2
2023/10/31 00:02:28;;;;;;;1.17;0.65;;;;;;;;;;10525316;28;19970;-77
2023/10/31 00:07:32;;;;;;;1.67;0.80;;;;;;;;;;10528898;28;20051;-78
2023/10/31 00:12:35;;;;;;;0.47;0.47;;;;;;;;;;10523133;28;20035;-78
2023/10/31 00:17:38;;;;;;;1.30;0.70;;;;;;;;;;10522291;28;20121;-77
2023/10/31 00:22:43;;;;;;;1.50;0.43;;;;;;;;;;10528176;28;20389;-77
2023/10/31 00:27:46;;;;;;;0.50;0.30;;;;;;;;;;10526826;28;20615;-79
2023/10/31 00:32:52;;;;;;;0.30;0.25;;;;;;;;;;10524141;28;20051;-78
2023/10/31 00:37:57;;;;;;;0.17;0.15;;;;;;;;;;10521365;28;20043;-79
2023/10/31 00:43:00;;;;;;;;;;;;;;;;;;10528072;28;20059;-79
2023/10/31 00:48:03;;;;;;;0.10;0.10;;;;;;;;;;10522716;28;20030;-79
2023/10/31 00:53:07;;;;;;;0.10;0.10;;;;;;;;;;10525877;28;20047;-79
2023/10/31 00:58:10;;;;;;;0.40;0.40;;;;;;;;;;10530598;28;20043;-79
2023/10/31 01:03:12;;;;;;;0.30;0.30;;;;;;;;;;10524236;28;20105;-79
2023/10/31 01:08:17;;;;;;;0.63;0.20;;;;;;;;;;10523960;28;20471;-79
2023/10/31 01:13:19;;;;;;;0.68;0.30;;;;;;;;;;10518479;28;20115;-79
2023/10/31 01:18:22;;;;;;;0.32;0.20;;;;;;;;;;10523381;28;20043;-80
2023/10/31 01:23:26;;;;;;;0.22;0.20;;;;;;;;;;10530193;28;20493;-80
2023/10/31 01:28:29;;;;;;;;;;;;;;;;;;10527276;28;20044;-79
2023/10/31 01:33:31;;;;;;;0.00;0.00;;;;;;;;;;10520067;28;20366;-79
2023/10/31 01:38:36;;;;;;;0.10;0.10;;;;;;;;;;10524254;28;20040;-80
2023/10/31 01:43:38;;;;;;;;;;;;;;;;;;10522995;28;20162;-78
2023/10/31 01:48:41;;;;;;;0.30;0.20;;;;;;;;;;10521195;28;19935;-78
2023/10/31 01:53:45;;;;;;;0.52;0.28;;;;;;;;;;10520810;28;20115;-76
2023/10/31 01:58:49;;;;;;;0.20;0.20;;;;;;;;;;10519902;28;21554;-78
2023/10/31 02:03:51;;;;;;;0.43;0.10;;;;;;;;;;10515313;28;20040;-78
2023/10/31 02:08:56;;;;;;;1.58;0.35;;;;;;;;;;10520595;28;20127;-78
2023/10/31 02:13:59;;;;;;;0.00;0.00;;;;;;;;;;10528111;28;20135;-77
2023/10/31 02:19:01;;;;;;;0.20;0.00;;;;;;;;;;10528736;28;20125;-77
2023/10/31 02:24:07;;;;;;;0.10;0.10;;;;;;;;;;10532257;28;20519;-78
2023/10/31 02:29:10;;;;;;;0.00;0.00;;;;;;;;;;10528525;28;20247;-79
2023/10/31 02:34:12;;;;;;;0.00;0.00;;;;;;;;;;10527838;28;20485;-79
2023/10/31 02:39:17;;;;;;;1.05;0.20;;;;;;;;;;10533129;28;20052;-78
2023/10/31 02:44:19;;;;;;;;;;;;;;;;;;10529683;28;20167;-78
2023/10/31 02:49:22;;;;;;;0.35;0.00;;;;;;;;;;10524162;28;20018;-77
2023/10/31 02:54:26;;;;;;;1.20;0.10;;;;;;;;;;10528813;28;20123;-77
2023/10/31 02:59:28;;;;;;;;;;;;;;;;;;10530265;28;20044;-78
2023/10/31 03:04:31;;;;;;;0.10;0.10;;;;;;;;;;10521773;28;20291;-77
2023/10/31 03:09:35;;;;;;;0.10;0.10;;;;;;;;;;10527834;28;20036;-79
2023/10/31 03:14:37;;;;;;;0.00;0.00;;;;;;;;;;10518892;28;20040;-77
2023/10/31 03:19:40;;;;;;;0.00;0.00;;;;;;;;;;10528803;28;20168;-78
2023/10/31 03:24:44;;;;;;;0.00;0.00;;;;;;;;;;10525003;28;20046;-78
2023/10/31 03:29:47;;;;;;;0.15;0.00;;;;;;;;;;10533094;28;20075;-79
2023/10/31 03:34:49;;;;;;;0.63;0.20;;;;;;;;;;10520478;28;22217;-79
2023/10/31 03:39:53;;;;;;;0.15;0.10;;;;;;;;;;10528576;28;20051;-78
2023/10/31 03:44:56;;;;;;;0.30;0.10;;;;;;;;;;10526460;28;20429;-78
2023/10/31 03:49:59;;;;;;;0.10;0.10;;;;;;;;;;10525947;28;20044;-78
2023/10/31 03:55:03;;;;;;;0.10;0.10;;;;;;;;;;10530978;28;20047;-78
2023/10/31 04:00:07;;;;;;;0.00;0.00;;;;;;;;;;10529152;28;20059;-79
2023/10/31 04:05:09;;;;;;;0.43;0.13;;;;;;;;;;10527772;28;20036;-79
2023/10/31 04:10:13;;;;;;;0.15;0.10;;;;;;;;;;10526634;28;20076;-78
2023/10/31 04:15:16;;;;;;;0.20;0.10;;;;;;;;;;10519142;28;20040;-78
2023/10/31 04:20:18;;;;;;;0.55;0.20;;;;;;;;;;10519322;28;20047;-78
2023/10/31 04:25:23;;;;;;;0.15;0.15;;;;;;;;;;10528479;28;20123;-77
2023/10/31 04:30:26;;;;;;;0.10;0.10;;;;;;;;;;10523827;28;20043;-77
2023/10/31 04:35:29;;;;;;;0.20;0.20;;;;;;;;;;10521538;28;20040;-77
2023/10/31 04:40:33;;;;;;;0.20;0.20;;;;;;;;;;10527031;28;20044;-77
2023/10/31 04:45:35;;;;;;;;;;;;;;;;;;10529199;28;20429;-78
2023/10/31 04:50:38;;;;;;;0.22;0.17;;;;;;;;;;10527014;28;20261;-77
2023/10/31 04:55:42;;;;;;;0.28;0.28;;;;;;;;;;10530450;28;20609;-77
2023/10/31 05:00:45;;;;;;;;;;;;;;;;;;10527695;28;20063;-77
2023/10/31 05:05:47;;;;;;;0.38;0.25;;;;;;;;;;10526910;28;19967;-77
2023/10/31 05:10:51;;;;;;;0.50;0.50;;;;;;;;;;10524672;28;20602;-77
2023/10/31 05:15:54;;;;;;;;;;;;;;;;;;10526043;28;20059;-77
2023/10/31 05:20:57;;;;;;;0.80;0.30;;;;;;;;;;10514933;28;20411;-78
2023/10/31 05:26:01;;;;;;;0.15;0.15;;;;;;;;;;10528491;28;20147;-78
2023/10/31 05:31:04;;;;;;;0.63;0.45;;;;;;;;;;10530755;28;20051;-77
2023/10/31 05:36:07;;;;;;;0.45;0.32;;;;;;;;;;10524182;28;20036;-78
2023/10/31 05:41:11;;;;;;;2.43;0.57;;;;;;;;;;10524586;28;20040;-78
2023/10/31 05:46:14;;;;;;;0.73;0.50;;;;;;;;;;10525822;28;20114;-77
2023/10/31 05:51:18;;;;;;;0.45;0.38;;;;;;;;;;10531478;28;20047;-76
2023/10/31 05:56:22;;;;;;;0.10;0.10;;;;;;;;;;10510841;28;20047;-75
2023/10/31 06:01:25;;;;;;;1.15;0.70;;;;;;;;;;10539550;28;20128;-78
2023/10/31 06:06:27;;;;;;;1.38;0.50;;;;;;;;;;10539018;28;20079;-77
2023/10/31 06:11:31;;;;;;;0.70;0.50;;;;;;;;;;10544880;28;20036;-76
2023/10/31 06:16:34;;;;;;;0.15;0.15;;;;;;;;;;10545410;28;20100;-76
2023/10/31 06:21:37;;;;;;;3.53;0.90;;;;;;;;;;10537705;28;20139;-76
2023/10/31 06:26:41;;;;;;;0.20;0.20;;;;;;;;;;10536029;28;20048;-76
2023/10/31 06:31:44;;;;;;;;;;;;;;;;;;10540230;28;20106;-76
2023/10/31 06:36:46;;;;;;;0.63;0.55;;;;;;;;;;10544344;28;19928;-77
2023/10/31 06:41:50;;;;;;;1.90;0.68;;;;;;;;;;10537425;28;20067;-77
2023/10/31 06:46:53;;;;;;;0.57;0.52;;;;;;;;;;10532923;28;20158;-78
2023/10/31 06:51:56;;;;;;;1.42;0.90;;;;;;;;;;10534640;28;20170;-78
2023/10/31 06:57:01;;;;;;;0.80;0.73;;;;;;;;;;10528836;28;20051;-77
2023/10/31 07:02:03;;;;;;;1.05;0.90;;;;;;;;;;10531196;28;20150;-77
2023/10/31 07:07:06;;;;;;;1.10;0.65;;;;;;;;;;10529217;28;20028;-78
2023/10/31 07:12:10;;;;;;;1.42;0.45;;;;;;;;;;10511863;28;20040;-77
2023/10/31 07:17:13;;;;;;;1.50;0.80;;;;;;;;;;10530729;28;20036;-77
2023/10/31 07:22:16;;;;;;;2.60;1.05;;;;;;;;;;10524541;28;20050;-78
2023/10/31 07:27:20;;;;;;;3.45;0.80;;;;;;;;;;10533199;28;20040;-76
2023/10/31 07:32:23;;;;;;;1.05;0.70;;;;;;;;;;10524815;28;20063;-77
2023/10/31 07:37:26;;;;;;;1.05;0.63;;;;;;;;;;10528056;28;20036;-77
2023/10/31 07:42:30;;;;;;;2.17;0.82;;;;;;;;;;10528571;28;20476;-78
2023/10/31 07:47:32;;;;;;;1.00;0.60;;;;;;;;;;10525004;28;20183;-77
2023/10/31 07:52:35;;;;;;;2.88;0.85;;;;;;;;;;10523430;28;20122;-77
2023/10/31 07:57:39;;;;;;;1.13;0.68;;;;;;;;;;10532758;28;20040;-77
2023/10/31 08:02:42;;;;;;;;;;;;;;;;;;10528738;28;20048;-77
2023/10/31 08:07:45;;;;;;;0.55;0.50;;;;;;;;;;10522534;28;19924;-78
2023/10/31 08:12:49;;;;;;;3.13;0.93;;;;;;;;;;10511184;28;20093;-77
2023/10/31 08:17:51;;;;;;;1.15;0.55;;;;;;;;;;10524834;28;20810;-77
2023/10/31 08:22:54;;;;;;;2.00;0.60;;;;;;;;;;10527269;28;20054;-77
2023/10/31 08:27:59;;;;;;;3.00;0.65;;;;;;;;;;10528105;28;20598;-77
2023/10/31 08:33:01;;;;;;;0.98;0.52;;;;;;;;;;10519293;28;20048;-77
2023/10/31 08:38:33;;;;;;;1.58;0.40;;;;;;;;;;10525860;28;20062;-76
2023/10/31 08:43:55;;;;;;;2.00;0.80;;;;;;;;;;10523158;28;20520;-77
2023/10/31 08:49:13;;;;;;;0.90;0.50;;;;;;;;;;10521608;28;20039;-77
2023/10/31 08:54:31;;;;;;;2.10;0.70;;;;;;;;;;10514733;28;20098;-77
2023/10/31 08:59:50;;;;;;;1.75;0.80;;;;;;;;;;10528827;28;20035;-75
2023/10/31 09:04:58;;;;;;;1.10;0.70;;;;;;;;;;10539983;28;20060;-76
2023/10/31 09:10:37;;;;;;;3.08;0.52;;;;;;;;;;10546254;28;20048;-77
2023/10/31 09:15:54;;;;;;;1.65;0.50;;;;;;;;;;10534282;28;20067;-76
2023/10/31 09:20:58;;;;;;;0.68;0.57;;;;;;;;;;10526652;28;20408;-77
2023/10/31 09:26:01;;;;;;;1.10;0.50;;;;;;;;;;10526805;28;20116;-76
2023/10/31 09:31:04;;;;;;;2.55;0.85;;;;;;;;;;10526242;28;20040;-77
2023/10/31 09:36:09;;;;;;;2.92;0.90;;;;;;;;;;10518866;28;20512;-77
2023/10/31 09:41:13;;;;;;;1.02;0.38;;;;;;;;;;10525862;28;20048;-77
2023/10/31 09:46:17;;;;;;;0.90;0.60;;;;;;;;;;10520803;28;20036;-76
2023/10/31 09:51:22;;;;;;;3.97;0.70;;;;;;;;;;10518515;28;20078;-77
2023/10/31 10:02:31;;;;;;;1.50;0.70;;;;;;;;;;10532834;28;20096;-77
2023/10/31 10:07:36;;;;;;;2.27;0.73;;;;;;;;;;10521294;28;20498;-77
2023/10/31 10:12:42;;;;;;;2.22;0.68;;;;;;;;;;10522241;28;20059;-77
2023/10/31 10:17:49;;;;;;;2.03;0.85;;;;;;;;;;10514803;28;20040;-77
2023/10/31 10:22:53;;;;;;;2.00;0.65;;;;;;;;;;10521984;28;20566;-77
2023/10/31 10:27:57;;;;;;;0.90;0.50;;;;;;;;;;10527098;28;20115;-77
2023/10/31 10:32:59;;;;;;;1.45;0.73;;;;;;;;;;10527487;28;20128;-77
2023/10/31 10:38:04;;;;;;;3.92;0.80;;;;;;;;;;10526317;28;20044;-77
2023/10/31 10:43:12;;;;;;;2.25;0.90;;;;;;;;;;10525332;28;20508;-77
2023/10/31 10:48:16;;;;;;;0.38;0.38;;;;;;;;;;10523979;28;20166;-77
2023/10/31 10:53:25;;;;;;;4.78;0.95;;;;;;;;;;10533057;28;20493;-77
2023/10/31 10:58:33;;;;;;;1.63;0.73;;;;;;;;;;10534023;28;20040;-78
2023/10/31 11:03:35;;;;;;;2.55;0.50;;;;;;;;;;10535112;28;20117;-77
2023/10/31 11:08:40;;;;;;;0.95;0.68;;;;;;;;;;10535997;28;20123;-77
2023/10/31 11:13:44;;;;;;;4.93;0.77;;;;;;;;;;10538712;28;20107;-77
2023/10/31 11:18:47;;;;;;;4.65;0.80;;;;;;;;;;10528964;28;20133;-78
2023/10/31 11:23:59;;;;;;;3.05;0.90;;;;;;;;;;10527756;28;20086;-77
2023/10/31 11:29:06;;;;;;;1.60;1.08;;;;;;;;;;10519688;28;20056;-78
2023/10/31 11:34:09;;;;;;;4.97;1.50;;;;;;;;;;10525856;28;20058;-77
2023/10/31 11:39:14;;;;;;;2.63;0.87;;;;;;;;;;10523935;28;20036;-78
2023/10/31 11:44:18;;;;;;;1.70;0.63;;;;;;;;;;10516368;28;20080;-77
2023/10/31 11:49:35;;;;;;;2.03;0.65;;;;;;;;;;10502503;28;20050;-79
2023/10/31 11:54:40;;;;;;;1.88;1.00;;;;;;;;;;10510974;28;20045;-78
2023/10/31 11:59:43;;;;;;;4.05;1.20;;;;;;;;;;10521333;28;20270;-78
2023/10/31 12:04:45;;;;;;;1.25;0.70;;;;;;;;;;10513922;28;20032;-76
2023/10/31 12:09:49;;;;;;;0.68;0.45;;;;;;;;;;10518851;28;20051;-77
2023/10/31 12:15:04;;;;;;;2.63;0.82;;;;;;;;;;10518659;28;20125;-76
2023/10/31 12:20:08;;;;;;;0.80;0.40;;;;;;;;;;10517998;28;20114;-77
2023/10/31 12:25:12;;;;;;;2.83;0.82;;;;;;;;;;10515563;28;20048;-79
2023/10/31 12:30:17;;;;;;;4.30;1.20;;;;;;;;;;10517292;28;20048;-77
2023/10/31 12:35:22;;;;;;;4.57;1.38;;;;;;;;;;10504815;28;20057;-78
2023/10/31 12:40:26;;;;;;;2.75;1.00;;;;;;;;;;10523744;28;20505;-78
2023/10/31 12:45:29;;;;;;;2.72;1.27;;;;;;;;;;10520571;28;20406;-77
2023/10/31 12:50:32;;;;;;;1.97;0.60;;;;;;;;;;10515403;28;20040;-77
2023/10/31 12:55:40;;;;;;;4.55;0.70;;;;;;;;;;10519875;28;20177;-78
2023/10/31 13:00:43;;;;;;;0.52;0.40;;;;;;;;;;10529045;28;20032;-77
2023/10/31 13:05:46;;;;;;;0.95;0.60;;;;;;;;;;10523172;28;20036;-77
2023/10/31 13:10:50;;;;;;;4.80;0.65;;;;;;;;;;10535425;28;20065;-76
2023/10/31 13:15:53;;;;;;;3.42;0.77;;;;;;;;;;10528284;28;20377;-77
2023/10/31 13:20:57;;;;;;;;;;;;;;;;;;10518581;28;20492;-78
2023/10/31 13:26:05;;;;;;;0.70;0.52;;;;;;;;;;10530567;28;19928;-78
2023/10/31 13:31:11;;;;;;;0.30;0.30;;;;;;;;;;10527213;28;20055;-78
2023/10/31 13:36:14;;;;;;;0.98;0.52;;;;;;;;;;10527670;28;20036;-77
2023/10/31 13:41:17;;;;;;;;;;;;;;;;;;10521545;28;20036;-78
2023/10/31 13:46:23;;;;;;;0.50;0.50;;;;;;;;;;10520986;28;20254;-78
2023/10/31 13:51:26;;;;;;;0.80;0.60;;;;;;;;;;10516778;28;20040;-79
2023/10/31 13:56:29;;;;;;;0.70;0.40;;;;;;;;;;10521747;28;20065;-77
2023/10/31 14:01:34;;;;;;;0.63;0.50;;;;;;;;;;10522769;28;20566;-78
2023/10/31 14:06:38;;;;;;;0.52;0.45;;;;;;;;;;10523225;28;20050;-78
2023/10/31 14:11:41;;;;;;;1.48;0.35;;;;;;;;;;10530384;28;20069;-79
2023/10/31 14:16:45;;;;;;;5.13;0.75;;;;;;;;;;10527406;28;20373;-79
2023/10/31 14:21:49;;;;;;;1.45;0.57;;;;;;;;;;10522332;28;20143;-79
2023/10/31 14:26:51;;;;;;;0.38;0.30;;;;;;;;;;10524838;28;20087;-79
2023/10/31 14:31:57;;;;;;;1.70;0.40;;;;;;;;;;10521781;28;20083;-79
2023/10/31 14:36:59;;;;;;;1.40;0.40;;;;;;;;;;10527755;28;20047;-78
2023/10/31 14:42:02;;;;;;;0.93;0.60;;;;;;;;;;10523874;28;20044;-78
2023/10/31 14:47:07;;;;;;;1.35;0.50;;;;;;;;;;10524247;28;20043;-79
2023/10/31 14:52:10;;;;;;;0.75;0.30;;;;;;;;;;10531355;28;20048;-79
2023/10/31 14:57:13;;;;;;;1.85;0.73;;;;;;;;;;10528257;28;20169;-79
2023/10/31 15:02:17;;;;;;;0.97;0.63;;;;;;;;;;10528616;28;20119;-78
2023/10/31 15:07:21;;;;;;;6.90;0.93;;;;;;;;;;10529016;28;20563;-76
2023/10/31 15:12:23;;;;;;;1.50;0.88;;;;;;;;;;10529968;28;20109;-78
2023/10/31 15:17:27;;;;;;;2.85;0.80;;;;;;;;;;10525076;28;20135;-78
2023/10/31 15:22:31;;;;;;;1.02;0.50;;;;;;;;;;10526138;28;20144;-77
2023/10/31 15:27:33;;;;;;;3.28;1.00;;;;;;;;;;10530521;28;20135;-79
2023/10/31 15:32:39;;;;;;;2.28;1.05;;;;;;;;;;10528904;28;20052;-78
2023/10/31 15:37:44;;;;;;;2.80;0.98;;;;;;;;;;10534155;28;20059;-78
2023/10/31 15:42:46;;;;;;;0.85;0.52;;;;;;;;;;10536008;28;20065;-78
2023/10/31 15:47:50;;;;;;;2.05;0.98;;;;;;;;;;10547543;28;20052;-78
2023/10/31 15:52:54;;;;;;;3.33;0.90;;;;;;;;;;10537932;28;20052;-78
2023/10/31 15:57:57;;;;;;;;;;;;;;;;;;10539972;28;20061;-78
2023/10/31 16:03:01;;;;;;;0.40;0.30;;;;;;;;;;10543534;28;19928;-77
2023/10/31 16:08:04;;;;;;;1.35;0.77;;;;;;;;;;10546758;28;20040;-78
2023/10/31 16:13:07;;;;;;;2.67;0.93;;;;;;;;;;10545159;28;20044;-77
2023/10/31 16:18:12;;;;;;;7.35;0.98;;;;;;;;;;10544272;28;20092;-78
2023/10/31 16:23:17;;;;;;;2.50;0.75;;;;;;;;;;10524734;28;20048;-79
2023/10/31 16:28:20;;;;;;;4.07;1.00;;;;;;;;;;10529586;28;20162;-78
2023/10/31 16:33:24;;;;;;;1.60;0.60;;;;;;;;;;10523832;28;20056;-78
2023/10/31 16:38:27;;;;;;;;;;;;;;;;;;10532584;28;20043;-79
2023/10/31 16:43:31;;;;;;;1.88;0.65;;;;;;;;;;10530779;28;20292;-78
2023/10/31 16:48:35;;;;;;;3.15;0.63;;;;;;;;;;10526828;28;20449;-78
2023/10/31 16:53:38;;;;;;;1.63;1.02;;;;;;;;;;10526682;28;20047;-79
2023/10/31 16:58:42;;;;;;;1.75;0.90;;;;;;;;;;10518945;28;20572;-78
2023/10/31 17:03:46;;;;;;;0.45;0.45;;;;;;;;;;10520261;28;20036;-79
2023/10/31 17:08:49;;;;;;;2.15;1.02;;;;;;;;;;10520421;28;20051;-77
2023/10/31 17:13:52;;;;;;;3.50;1.20;;;;;;;;;;10508214;28;20193;-82
2023/10/31 17:18:57;;;;;;;3.42;1.00;;;;;;;;;;10537231;28;20081;-83
2023/10/31 17:23:59;;;;;;;4.93;1.80;;;;;;;;;;10536274;28;20118;-85
2023/10/31 17:29:05;;;;;;;1.67;0.95;;;;;;;;;;10534707;28;20139;-81
2023/10/31 17:34:09;;;;;;;2.70;1.50;;;;;;;;;;10524692;28;20439;-77
2023/10/31 17:39:13;;;;;;;3.40;1.33;;;;;;;;;;10522756;28;20470;-77
2023/10/31 17:44:16;;;;;;;;;;;;;;;;;;10525178;28;20994;-77
2023/10/31 17:49:20;;;;;;;2.17;1.00;;;;;;;;;;10528163;28;19929;-77
2023/10/31 17:54:23;;;;;;;3.35;1.42;;;;;;;;;;10535399;28;20134;-78
2023/10/31 17:59:25;;;;;;;1.17;0.55;;;;;;;;;;10531186;28;20040;-78
2023/10/31 18:04:31;;;;;;;6.18;1.08;;;;;;;;;;10526032;28;20052;-78
2023/10/31 18:09:34;;;;;;;1.00;0.60;;;;;;;;;;10514160;28;20157;-78
2023/10/31 18:14:37;;;;;;;0.85;0.80;;;;;;;;;;10524148;28;20451;-78
2023/10/31 18:19:41;;;;;;;4.88;0.73;;;;;;;;;;10525359;28;20052;-78
2023/10/31 18:24:44;;;;;;;1.67;1.08;;;;;;;;;;10526189;28;20466;-78
2023/10/31 18:29:47;;;;;;;1.25;0.95;;;;;;;;;;10524968;28;20040;-77
2023/10/31 18:34:51;;;;;;;1.10;0.90;;;;;;;;;;10523442;28;20044;-78
2023/10/31 18:39:54;;;;;;;1.05;0.75;;;;;;;;;;10525689;28;20048;-77
2023/10/31 18:44:57;;;;;;;1.88;1.10;;;;;;;;;;10526932;28;20044;-76
2023/10/31 18:50:01;;;;;;;1.25;1.00;;;;;;;;;;10528578;28;20032;-77
2023/10/31 18:55:03;;;;;;;;;;;;;;;;;;10526936;28;20044;-76
2023/10/31 19:00:07;;;;;;;1.30;0.93;;;;;;;;;;10522790;28;20435;-77
2023/10/31 19:05:12;;;;;;;1.98;0.55;;;;;;;;;;10525375;28;20480;-76
2023/10/31 19:10:15;;;;;;;2.53;1.10;;;;;;;;;;10532838;28;20516;-77
2023/10/31 19:15:18;;;;;;;0.82;0.70;;;;;;;;;;10524617;28;20044;-76
2023/10/31 19:20:24;;;;;;;2.35;1.20;;;;;;;;;;10527587;28;20039;-77
2023/10/31 19:25:28;;;;;;;0.60;0.43;;;;;;;;;;10521224;28;20098;-77
2023/10/31 19:30:31;;;;;;;1.38;1.10;;;;;;;;;;10527704;28;20123;-76
2023/10/31 19:35:36;;;;;;;1.65;1.10;;;;;;;;;;10524543;28;20170;-79
2023/10/31 19:40:39;;;;;;;1.38;1.02;;;;;;;;;;10528648;28;20032;-77
2023/10/31 19:45:45;;;;;;;1.77;0.90;;;;;;;;;;10533024;28;20059;-77
2023/10/31 19:50:49;;;;;;;3.15;1.55;;;;;;;;;;10534508;28;20074;-77
2023/10/31 19:55:52;;;;;;;2.00;1.35;;;;;;;;;;10532520;28;20052;-75
2023/10/31 20:00:54;;;;;;;1.98;1.38;;;;;;;;;;10534812;28;20154;-77
2023/10/31 20:05:59;;;;;;;2.35;0.80;;;;;;;;;;10538648;28;20133;-75
2023/10/31 20:11:02;;;;;;;1.45;0.90;;;;;;;;;;10542399;28;20101;-76
2023/10/31 20:16:05;;;;;;;2.37;1.30;;;;;;;;;;10541799;28;20054;-76
2023/10/31 20:21:09;;;;;;;1.67;1.20;;;;;;;;;;10539323;28;20035;-76
2023/10/31 20:26:16;;;;;;;2.30;1.02;;;;;;;;;;10535488;28;20510;-78
2023/10/31 20:31:20;;;;;;;1.90;0.73;;;;;;;;;;10535326;28;20044;-75
2023/10/31 20:36:24;;;;;;;0.63;0.60;;;;;;;;;;10532898;28;20047;-76
2023/10/31 20:41:27;;;;;;;0.90;0.65;;;;;;;;;;10526941;28;20052;-77
2023/10/31 20:46:31;;;;;;;1.02;0.85;;;;;;;;;;10521124;28;20139;-77
2023/10/31 20:51:34;;;;;;;;;;;;;;;;;;10528670;28;20065;-78
2023/10/31 20:56:38;;;;;;;2.80;0.73;;;;;;;;;;10512209;28;19920;-77
2023/10/31 21:01:42;;;;;;;2.30;0.85;;;;;;;;;;10527886;28;20071;-76
2023/10/31 21:06:44;;;;;;;;;;;;;;;;;;10528692;28;20681;-77
2023/10/31 21:11:49;;;;;;;4.22;1.33;;;;;;;;;;10530399;28;19978;-78
2023/10/31 21:16:51;;;;;;;0.90;0.52;;;;;;;;;;10525863;28;20047;-77
2023/10/31 21:21:54;;;;;;;0.25;0.25;;;;;;;;;;10523151;28;20096;-76
2023/10/31 21:26:58;;;;;;;1.02;0.90;;;;;;;;;;10529827;28;20039;-78
2023/10/31 21:32:01;;;;;;;;;;;;;;;;;;10526525;28;20044;-77
2023/10/31 21:37:04;;;;;;;2.30;0.68;;;;;;;;;;10521913;28;20307;-76
2023/10/31 21:42:08;;;;;;;0.73;0.60;;;;;;;;;;10523030;28;20051;-77
2023/10/31 21:47:11;;;;;;;0.90;0.75;;;;;;;;;;10519884;28;20100;-77
2023/10/31 21:52:13;;;;;;;0.80;0.60;;;;;;;;;;10523218;28;20047;-78
2023/10/31 21:57:17;;;;;;;2.10;0.95;;;;;;;;;;10523834;28;20044;-76
2023/10/31 22:02:20;;;;;;;1.73;0.90;;;;;;;;;;10501197;28;20122;-77
2023/10/31 22:07:23;;;;;;;1.30;0.77;;;;;;;;;;10517105;28;20032;-78
2023/10/31 22:12:28;;;;;;;0.65;0.30;;;;;;;;;;10524475;28;20452;-77
2023/10/31 22:17:30;;;;;;;0.73;0.73;;;;;;;;;;10514571;28;20054;-78
2023/10/31 22:22:33;;;;;;;1.50;0.90;;;;;;;;;;10526548;28;20510;-76
2023/10/31 22:27:38;;;;;;;0.55;0.32;;;;;;;;;;10526658;28;20097;-78
2023/10/31 22:32:41;;;;;;;1.05;0.45;;;;;;;;;;10530036;28;20044;-78
2023/10/31 22:37:43;;;;;;;0.90;0.70;;;;;;;;;;10529774;28;20052;-78
2023/10/31 22:42:47;;;;;;;0.85;0.45;;;;;;;;;;10525166;28;20083;-78
2023/10/31 22:47:50;;;;;;;;;;;;;;;;;;10528470;28;20054;-78
2023/10/31 22:52:53;;;;;;;1.55;0.50;;;;;;;;;;10532684;28;19926;-78
2023/10/31 22:57:57;;;;;;;2.90;0.75;;;;;;;;;;10517122;28;20048;-77
2023/10/31 23:03:00;;;;;;;;;;;;;;;;;;10529604;28;20043;-77
2023/10/31 23:08:03;;;;;;;0.47;0.37;;;;;;;;;;10522396;28;19981;-77
2023/10/31 23:13:08;;;;;;;2.90;0.90;;;;;;;;;;10526020;28;20036;-77
2023/10/31 23:18:10;;;;;;;0.70;0.50;;;;;;;;;;10529865;28;20036;-77
2023/10/31 23:23:16;;;;;;;0.43;0.40;;;;;;;;;;10523584;28;20040;-77
2023/10/31 23:28:21;;;;;;;2.67;0.60;;;;;;;;;;10526980;28;20095;-77
2023/10/31 23:33:23;;;;;;;1.27;0.52;;;;;;;;;;10525045;28;20197;-77
2023/10/31 23:38:28;;;;;;;0.73;0.52;;;;;;;;;;10523909;28;20481;-76
2023/10/31 23:43:32;;;;;;;0.70;0.57;;;;;;;;;;10526457;28;20048;-76
2023/10/31 23:48:35;;;;;;;0.75;0.40;;;;;;;;;;10526178;28;20378;-76
2023/10/31 23:53:37;;;;;;;2.50;0.50;;;;;;;;;;10522277;28;20052;-77
2023/10/31 23:58:42;;;;;;;0.82;0.50;;;;;;;;;;10530147;28;20166;-77
